sensor_id;sensor_type;location;lat;lon;timestamp;temperature;humidity
6863;DHT22;3470;48.738;9.616;2023-04-03T16:53:24;7.40;70.00
6863;DHT22;3470;48.738;9.616;2023-04-03T16:55:53;6.90;72.10
6863;DHT22;3470;48.738;9.616;2023-04-03T16:58:19;6.60;74.30
6863;DHT22;3470;48.738;9.616;2023-04-03T17:00:44;6.40;73.70
6863;DHT22;3470;48.738;9.616;2023-04-03T17:03:12;6.20;75.20
6863;DHT22;3470;48.738;9.616;2023-04-03T17:05:38;6.00;73.60
6863;DHT22;3470;48.738;9.616;2023-04-03T17:08:03;5.90;76.00
6863;DHT22;3470;48.738;9.616;2023-04-03T17:10:29;5.80;76.30
6863;DHT22;3470;48.738;9.616;2023-04-03T17:12:55;5.80;77.90
6863;DHT22;3470;48.738;9.616;2023-04-03T17:15:21;5.60;76.90
6863;DHT22;3470;48.738;9.616;2023-04-03T17:17:48;5.50;77.20
6863;DHT22;3470;48.738;9.616;2023-04-03T17:20:14;5.40;77.70
6863;DHT22;3470;48.738;9.616;2023-04-03T17:22:40;5.20;79.40
6863;DHT22;3470;48.738;9.616;2023-04-03T17:25:06;5.10;78.50
6863;DHT22;3470;48.738;9.616;2023-04-03T17:27:32;5.10;79.10
6863;DHT22;3470;48.738;9.616;2023-04-03T17:29:58;5.10;79.40
6863;DHT22;3470;48.738;9.616;2023-04-03T17:32:24;5.10;79.60
6863;DHT22;3470;48.738;9.616;2023-04-03T17:34:50;5.00;80.10
6863;DHT22;3470;48.738;9.616;2023-04-03T17:37:16;4.80;81.00
6863;DHT22;3470;48.738;9.616;2023-04-03T17:39:42;4.70;81.50
6863;DHT22;3470;48.738;9.616;2023-04-03T17:42:07;4.70;82.00
6863;DHT22;3470;48.738;9.616;2023-04-03T17:44:33;4.60;82.50
6863;DHT22;3470;48.738;9.616;2023-04-03T17:46:59;4.60;83.20
6863;DHT22;3470;48.738;9.616;2023-04-03T17:49:24;4.50;84.00
6863;DHT22;3470;48.738;9.616;2023-04-03T17:51:50;4.50;84.10
6863;DHT22;3470;48.738;9.616;2023-04-03T17:54:15;4.50;84.60
6863;DHT22;3470;48.738;9.616;2023-04-03T17:56:41;4.40;84.40
6863;DHT22;3470;48.738;9.616;2023-04-03T17:59:12;4.30;84.70
6863;DHT22;3470;48.738;9.616;2023-04-03T18:01:38;4.30;83.90
6863;DHT22;3470;48.738;9.616;2023-04-03T18:04:05;4.20;84.00
6863;DHT22;3470;48.738;9.616;2023-04-03T18:06:41;4.10;83.90
6863;DHT22;3470;48.738;9.616;2023-04-03T18:11:43;3.80;86.00
6863;DHT22;3470;48.738;9.616;2023-04-03T18:14:10;3.60;86.70
6863;DHT22;3470;48.738;9.616;2023-04-03T18:16:37;3.50;88.30
6863;DHT22;3470;48.738;9.616;2023-04-03T18:19:03;3.50;88.60
6863;DHT22;3470;48.738;9.616;2023-04-03T18:21:29;3.50;88.70
6863;DHT22;3470;48.738;9.616;2023-04-03T18:23:55;3.50;89.60
6863;DHT22;3470;48.738;9.616;2023-04-03T18:26:24;3.60;90.00
6863;DHT22;3470;48.738;9.616;2023-04-03T18:28:55;3.60;90.20
6863;DHT22;3470;48.738;9.616;2023-04-03T18:31:21;3.60;90.40
6863;DHT22;3470;48.738;9.616;2023-04-03T18:33:48;3.60;90.60
6863;DHT22;3470;48.738;9.616;2023-04-03T18:36:18;3.70;90.90
6863;DHT22;3470;48.738;9.616;2023-04-03T18:38:46;3.70;90.00
6863;DHT22;3470;48.738;9.616;2023-04-03T18:41:12;3.80;89.00
6863;DHT22;3470;48.738;9.616;2023-04-03T18:43:38;3.80;88.50
6863;DHT22;3470;48.738;9.616;2023-04-03T18:46:05;3.80;88.10
6863;DHT22;3470;48.738;9.616;2023-04-03T18:48:35;3.80;87.60
6863;DHT22;3470;48.738;9.616;2023-04-03T18:51:01;3.80;88.00
6863;DHT22;3470;48.738;9.616;2023-04-03T18:53:27;3.80;88.10
6863;DHT22;3470;48.738;9.616;2023-04-03T18:55:52;3.80;88.10
6863;DHT22;3470;48.738;9.616;2023-04-03T18:58:18;3.70;88.00
6863;DHT22;3470;48.738;9.616;2023-04-03T19:00:43;3.70;88.40
6863;DHT22;3470;48.738;9.616;2023-04-03T19:03:10;3.70;89.00
6863;DHT22;3470;48.738;9.616;2023-04-03T19:05:37;3.70;88.90
6863;DHT22;3470;48.738;9.616;2023-04-03T19:08:03;3.60;89.00
6863;DHT22;3470;48.738;9.616;2023-04-03T19:10:29;3.70;89.20
6863;DHT22;3470;48.738;9.616;2023-04-03T19:12:55;3.60;87.60
6863;DHT22;3470;48.738;9.616;2023-04-03T19:15:22;3.60;87.50
6863;DHT22;3470;48.738;9.616;2023-04-03T19:17:49;3.60;86.50
6863;DHT22;3470;48.738;9.616;2023-04-03T19:20:15;3.60;87.10
6863;DHT22;3470;48.738;9.616;2023-04-03T19:22:41;3.50;87.20
6863;DHT22;3470;48.738;9.616;2023-04-03T19:25:08;3.40;87.70
6863;DHT22;3470;48.738;9.616;2023-04-03T19:27:38;3.30;87.50
6863;DHT22;3470;48.738;9.616;2023-04-03T19:30:08;3.30;86.90
6863;DHT22;3470;48.738;9.616;2023-04-03T19:32:35;3.20;87.10
6863;DHT22;3470;48.738;9.616;2023-04-03T19:35:01;3.20;88.20
6863;DHT22;3470;48.738;9.616;2023-04-03T19:37:29;3.20;88.00
6863;DHT22;3470;48.738;9.616;2023-04-03T19:39:55;3.10;87.70
6863;DHT22;3470;48.738;9.616;2023-04-03T19:42:21;3.00;87.90
6863;DHT22;3470;48.738;9.616;2023-04-03T19:44:47;3.00;88.20
6863;DHT22;3470;48.738;9.616;2023-04-03T19:47:14;2.90;88.20
6863;DHT22;3470;48.738;9.616;2023-04-03T19:49:44;2.90;88.30
6863;DHT22;3470;48.738;9.616;2023-04-03T19:52:10;2.80;88.30
6863;DHT22;3470;48.738;9.616;2023-04-03T19:54:36;2.70;88.20
6863;DHT22;3470;48.738;9.616;2023-04-03T19:57:01;2.60;89.10
6863;DHT22;3470;48.738;9.616;2023-04-03T19:59:27;2.60;88.70
6863;DHT22;3470;48.738;9.616;2023-04-03T20:01:52;2.50;89.20
6863;DHT22;3470;48.738;9.616;2023-04-03T20:04:18;2.40;89.40
6863;DHT22;3470;48.738;9.616;2023-04-03T20:06:44;2.50;89.40
6863;DHT22;3470;48.738;9.616;2023-04-03T20:09:10;2.40;89.80
6863;DHT22;3470;48.738;9.616;2023-04-03T20:11:36;2.40;89.90
6863;DHT22;3470;48.738;9.616;2023-04-03T20:14:02;2.40;89.40
6863;DHT22;3470;48.738;9.616;2023-04-03T20:16:29;2.40;89.70
6863;DHT22;3470;48.738;9.616;2023-04-03T20:18:55;2.40;89.40
6863;DHT22;3470;48.738;9.616;2023-04-03T20:21:30;2.30;89.60
6863;DHT22;3470;48.738;9.616;2023-04-03T20:23:58;2.30;89.50
6863;DHT22;3470;48.738;9.616;2023-04-03T20:26:25;2.30;89.30
6863;DHT22;3470;48.738;9.616;2023-04-03T20:28:53;2.20;89.50
6863;DHT22;3470;48.738;9.616;2023-04-03T20:31:21;2.20;89.20
6863;DHT22;3470;48.738;9.616;2023-04-03T20:33:47;2.10;89.60
6863;DHT22;3470;48.738;9.616;2023-04-03T20:36:14;2.00;89.60
6863;DHT22;3470;48.738;9.616;2023-04-03T20:38:40;2.00;90.00
6863;DHT22;3470;48.738;9.616;2023-04-03T20:41:07;1.90;89.80
6863;DHT22;3470;48.738;9.616;2023-04-03T20:43:33;1.80;90.10
6863;DHT22;3470;48.738;9.616;2023-04-03T20:46:00;1.70;90.10
6863;DHT22;3470;48.738;9.616;2023-04-03T20:48:26;1.70;90.10
6863;DHT22;3470;48.738;9.616;2023-04-03T20:50:52;1.60;90.00
6863;DHT22;3470;48.738;9.616;2023-04-03T20:53:18;1.60;90.20
6863;DHT22;3470;48.738;9.616;2023-04-03T20:55:59;1.50;90.10
6863;DHT22;3470;48.738;9.616;2023-04-03T20:58:26;1.60;89.80
6863;DHT22;3470;48.738;9.616;2023-04-03T21:00:55;1.50;90.00
6863;DHT22;3470;48.738;9.616;2023-04-03T21:03:22;1.50;90.30
6863;DHT22;3470;48.738;9.616;2023-04-03T21:05:47;1.40;90.30
6863;DHT22;3470;48.738;9.616;2023-04-03T21:19:54;1.20;90.50
6863;DHT22;3470;48.738;9.616;2023-04-03T21:22:20;1.10;90.70
6863;DHT22;3470;48.738;9.616;2023-04-03T21:24:45;1.00;90.90
6863;DHT22;3470;48.738;9.616;2023-04-03T21:27:11;1.00;91.00
6863;DHT22;3470;48.738;9.616;2023-04-03T21:29:37;0.90;91.30
6863;DHT22;3470;48.738;9.616;2023-04-03T21:32:03;0.90;91.30
6863;DHT22;3470;48.738;9.616;2023-04-03T21:34:29;0.80;91.30
6863;DHT22;3470;48.738;9.616;2023-04-03T21:37:03;0.80;91.30
6863;DHT22;3470;48.738;9.616;2023-04-03T21:39:29;0.70;91.40
6863;DHT22;3470;48.738;9.616;2023-04-03T21:41:55;0.80;91.50
6863;DHT22;3470;48.738;9.616;2023-04-03T21:44:22;0.70;91.70
6863;DHT22;3470;48.738;9.616;2023-04-03T21:46:48;0.60;91.80
6863;DHT22;3470;48.738;9.616;2023-04-03T21:49:19;0.60;91.90
6863;DHT22;3470;48.738;9.616;2023-04-03T21:51:45;0.50;92.10
6863;DHT22;3470;48.738;9.616;2023-04-03T21:54:10;0.40;92.30
6863;DHT22;3470;48.738;9.616;2023-04-03T21:56:36;0.40;92.30
6863;DHT22;3470;48.738;9.616;2023-04-03T21:59:02;0.40;92.30
6863;DHT22;3470;48.738;9.616;2023-04-03T22:01:27;0.40;92.50
6863;DHT22;3470;48.738;9.616;2023-04-03T22:03:56;0.30;92.50
6863;DHT22;3470;48.738;9.616;2023-04-03T22:06:22;0.30;92.50
6863;DHT22;3470;48.738;9.616;2023-04-03T22:08:47;0.30;92.60
6863;DHT22;3470;48.738;9.616;2023-04-03T22:11:14;0.20;92.80
6863;DHT22;3470;48.738;9.616;2023-04-03T22:13:41;0.20;93.00
6863;DHT22;3470;48.738;9.616;2023-04-03T22:16:08;0.10;93.10
6863;DHT22;3470;48.738;9.616;2023-04-03T22:18:34;0.10;93.20
6863;DHT22;3470;48.738;9.616;2023-04-03T22:21:00;0.10;93.30
6863;DHT22;3470;48.738;9.616;2023-04-03T22:23:26;0.00;93.60
6863;DHT22;3470;48.738;9.616;2023-04-03T22:25:58;-0.10;93.60
6863;DHT22;3470;48.738;9.616;2023-04-03T22:28:24;-0.10;94.20
6863;DHT22;3470;48.738;9.616;2023-04-03T22:30:51;-0.20;94.00
6863;DHT22;3470;48.738;9.616;2023-04-03T22:33:17;-0.20;94.00
6863;DHT22;3470;48.738;9.616;2023-04-03T22:35:49;-0.20;94.10
6863;DHT22;3470;48.738;9.616;2023-04-03T22:38:15;-0.20;94.40
6863;DHT22;3470;48.738;9.616;2023-04-03T22:40:41;-0.30;94.40
6863;DHT22;3470;48.738;9.616;2023-04-03T22:43:07;-0.30;94.60
6863;DHT22;3470;48.738;9.616;2023-04-03T22:45:33;-0.30;94.80
6863;DHT22;3470;48.738;9.616;2023-04-03T22:47:58;-0.40;94.90
6863;DHT22;3470;48.738;9.616;2023-04-03T22:50:25;-0.40;95.10
6863;DHT22;3470;48.738;9.616;2023-04-03T22:52:51;-0.50;95.20
6863;DHT22;3470;48.738;9.616;2023-04-03T22:55:16;-0.60;95.60
6863;DHT22;3470;48.738;9.616;2023-04-03T22:57:48;-0.60;96.10
6863;DHT22;3470;48.738;9.616;2023-04-03T23:00:14;-0.60;96.10
6863;DHT22;3470;48.738;9.616;2023-04-03T23:02:40;-0.70;96.20
6863;DHT22;3470;48.738;9.616;2023-04-03T23:05:07;-0.70;96.30
6863;DHT22;3470;48.738;9.616;2023-04-03T23:07:33;-0.70;96.30
6863;DHT22;3470;48.738;9.616;2023-04-03T23:09:59;-0.80;96.60
6863;DHT22;3470;48.738;9.616;2023-04-03T23:12:25;-0.90;96.80
6863;DHT22;3470;48.738;9.616;2023-04-03T23:14:51;-0.90;97.10
6863;DHT22;3470;48.738;9.616;2023-04-03T23:17:16;-1.00;97.10
6863;DHT22;3470;48.738;9.616;2023-04-03T23:19:42;-0.90;97.10
6863;DHT22;3470;48.738;9.616;2023-04-03T23:22:08;-1.00;97.10
6863;DHT22;3470;48.738;9.616;2023-04-03T23:24:33;-1.00;97.00
6863;DHT22;3470;48.738;9.616;2023-04-03T23:26:59;-1.00;97.30
6863;DHT22;3470;48.738;9.616;2023-04-03T23:29:24;-1.00;97.20
6863;DHT22;3470;48.738;9.616;2023-04-03T23:31:50;-1.20;97.40
